sensor_id;sensor_type;location;lat;lon;timestamp;pressure;altitude;pressure_sealevel;temperature;humidity
66681;BME280;53575;51.366;12.350;2023-03-16T00:00:41;100912.19;;;-0.99;100.00
66681;BME280;53575;51.366;12.350;2023-03-16T00:03:08;100904.19;;;-1.05;100.00
66681;BME280;53575;51.366;12.350;2023-03-16T00:05:33;100901.16;;;-1.14;100.00
66681;BME280;53575;51.366;12.350;2023-03-16T00:07:58;100899.25;;;-1.01;100.00
66681;BME280;53575;51.366;12.350;2023-03-16T00:10:24;100900.13;;;-1.00;100.00
66681;BME280;53575;51.366;12.350;2023-03-16T00:12:54;100904.34;;;-0.84;100.00
66681;BME280;53575;51.366;12.350;2023-03-16T00:15:20;100904.00;;;-0.74;100.00
66681;BME280;53575;51.366;12.350;2023-03-16T00:17:46;100903.06;;;-0.76;100.00
66681;BME280;53575;51.366;12.350;2023-03-16T00:20:14;100904.94;;;-0.90;100.00
66681;BME280;53575;51.366;12.350;2023-03-16T00:22:40;100909.69;;;-0.98;100.00
66681;BME280;53575;51.366;12.350;2023-03-16T00:25:10;100906.25;;;-0.98;100.00
66681;BME280;53575;51.366;12.350;2023-03-16T00:27:36;100905.38;;;-0.81;100.00
66681;BME280;53575;51.366;12.350;2023-03-16T00:30:02;100916.50;;;-0.80;100.00
66681;BME280;53575;51.366;12.350;2023-03-16T00:32:30;100909.19;;;-0.90;100.00
66681;BME280;53575;51.366;12.350;2023-03-16T00:34:59;100913.00;;;-0.82;100.00
66681;BME280;53575;51.366;12.350;2023-03-16T00:37:27;100909.19;;;-0.90;100.00
66681;BME280;53575;51.366;12.350;2023-03-16T00:39:53;100915.69;;;-0.97;100.00
66681;BME280;53575;51.366;12.350;2023-03-16T00:42:25;100918.19;;;-0.99;100.00
66681;BME280;53575;51.366;12.350;2023-03-16T00:44:55;100918.38;;;-1.12;100.00
66681;BME280;53575;51.366;12.350;2023-03-16T00:47:25;100923.00;;;-1.05;100.00
66681;BME280;53575;51.366;12.350;2023-03-16T00:49:51;100922.41;;;-1.17;100.00
66681;BME280;53575;51.366;12.350;2023-03-16T00:52:16;100925.56;;;-1.05;100.00
66681;BME280;53575;51.366;12.350;2023-03-16T00:54:43;100921.91;;;-0.92;100.00
66681;BME280;53575;51.366;12.350;2023-03-16T00:57:15;100929.81;;;-1.05;100.00
66681;BME280;53575;51.366;12.350;2023-03-16T00:59:42;100933.06;;;-1.26;100.00
66681;BME280;53575;51.366;12.350;2023-03-16T01:02:08;100929.75;;;-1.23;100.00
66681;BME280;53575;51.366;12.350;2023-03-16T01:04:34;100927.13;;;-1.25;100.00
66681;BME280;53575;51.366;12.350;2023-03-16T01:07:04;100924.78;;;-1.20;100.00
66681;BME280;53575;51.366;12.350;2023-03-16T01:09:30;100924.63;;;-1.23;100.00
66681;BME280;53575;51.366;12.350;2023-03-16T01:12:04;100918.06;;;-1.18;100.00
66681;BME280;53575;51.366;12.350;2023-03-16T01:14:31;100921.91;;;-1.26;100.00
66681;BME280;53575;51.366;12.350;2023-03-16T01:16:56;100917.53;;;-1.29;100.00
66681;BME280;53575;51.366;12.350;2023-03-16T01:19:22;100917.34;;;-1.15;100.00
66681;BME280;53575;51.366;12.350;2023-03-16T01:21:47;100913.19;;;-1.13;100.00
66681;BME280;53575;51.366;12.350;2023-03-16T01:24:13;100916.50;;;-0.98;100.00
66681;BME280;53575;51.366;12.350;2023-03-16T01:26:38;100916.66;;;-0.95;100.00
66681;BME280;53575;51.366;12.350;2023-03-16T01:29:04;100917.44;;;-0.96;100.00
66681;BME280;53575;51.366;12.350;2023-03-16T01:31:29;100917.38;;;-0.98;100.00
66681;BME280;53575;51.366;12.350;2023-03-16T01:33:56;100917.91;;;-0.87;100.00
66681;BME280;53575;51.366;12.350;2023-03-16T01:36:21;100916.66;;;-0.95;100.00
66681;BME280;53575;51.366;12.350;2023-03-16T01:38:47;100918.09;;;-1.00;100.00
66681;BME280;53575;51.366;12.350;2023-03-16T01:41:13;100921.78;;;-0.95;100.00
66681;BME280;53575;51.366;12.350;2023-03-16T01:43:40;100913.06;;;-0.99;100.00
66681;BME280;53575;51.366;12.350;2023-03-16T01:51:16;100914.88;;;-1.30;100.00
66681;BME280;53575;51.366;12.350;2023-03-16T01:53:46;100911.41;;;-1.14;100.00
66681;BME280;53575;51.366;12.350;2023-03-16T01:56:15;100910.03;;;-1.08;100.00
66681;BME280;53575;51.366;12.350;2023-03-16T01:58:44;100913.50;;;-1.24;100.00
66681;BME280;53575;51.366;12.350;2023-03-16T02:01:11;100911.13;;;-1.37;100.00
66681;BME280;53575;51.366;12.350;2023-03-16T02:03:39;100906.13;;;-1.34;100.00
66681;BME280;53575;51.366;12.350;2023-03-16T02:06:24;100896.25;;;-1.26;100.00
66681;BME280;53575;51.366;12.350;2023-03-16T02:08:50;100908.91;;;-1.13;100.00
66681;BME280;53575;51.366;12.350;2023-03-16T02:11:19;100896.25;;;-1.26;100.00
66681;BME280;53575;51.366;12.350;2023-03-16T02:13:47;100901.94;;;-1.15;100.00
66681;BME280;53575;51.366;12.350;2023-03-16T02:16:15;100895.22;;;-1.13;100.00
66681;BME280;53575;51.366;12.350;2023-03-16T02:18:45;100898.06;;;-1.07;100.00
66681;BME280;53575;51.366;12.350;2023-03-16T02:24:19;100894.75;;;-1.23;100.00
66681;BME280;53575;51.366;12.350;2023-03-16T02:26:50;100900.63;;;-1.25;100.00
66681;BME280;53575;51.366;12.350;2023-03-16T02:32:11;100901.13;;;-0.98;100.00
66681;BME280;53575;51.366;12.350;2023-03-16T02:34:38;100906.91;;;-1.02;100.00
66681;BME280;53575;51.366;12.350;2023-03-16T02:37:04;100905.16;;;-1.19;100.00
66681;BME280;53575;51.366;12.350;2023-03-16T02:39:30;100905.31;;;-1.16;100.00
66681;BME280;53575;51.366;12.350;2023-03-16T02:41:55;100904.13;;;-1.23;100.00
66681;BME280;53575;51.366;12.350;2023-03-16T02:44:28;100907.03;;;-1.33;100.00
66681;BME280;53575;51.366;12.350;2023-03-16T02:47:01;100898.78;;;-1.44;100.00
66681;BME280;53575;51.366;12.350;2023-03-16T02:49:36;100913.31;;;-1.44;100.00
66681;BME280;53575;51.366;12.350;2023-03-16T02:52:03;100907.59;;;-1.39;100.00
66681;BME280;53575;51.366;12.350;2023-03-16T02:54:29;100908.25;;;-1.43;100.00
66681;BME280;53575;51.366;12.350;2023-03-16T02:56:55;100909.75;;;-1.47;100.00
66681;BME280;53575;51.366;12.350;2023-03-16T02:59:20;100909.84;;;-1.45;100.00
66681;BME280;53575;51.366;12.350;2023-03-16T03:01:46;100908.09;;;-1.30;100.00
66681;BME280;53575;51.366;12.350;2023-03-16T03:04:11;100908.44;;;-1.06;100.00
66681;BME280;53575;51.366;12.350;2023-03-16T03:06:37;100906.56;;;-1.08;100.00
66681;BME280;53575;51.366;12.350;2023-03-16T03:09:04;100911.16;;;-1.19;100.00
66681;BME280;53575;51.366;12.350;2023-03-16T03:11:30;100910.06;;;-1.24;100.00
66681;BME280;53575;51.366;12.350;2023-03-16T03:13:55;100911.66;;;-1.26;100.00
66681;BME280;53575;51.366;12.350;2023-03-16T03:16:21;100912.16;;;-1.33;100.00
66681;BME280;53575;51.366;12.350;2023-03-16T03:18:47;100914.25;;;-1.42;100.00
66681;BME280;53575;51.366;12.350;2023-03-16T03:21:13;100915.47;;;-1.52;100.00
66681;BME280;53575;51.366;12.350;2023-03-16T03:23:38;100928.81;;;-1.41;100.00
66681;BME280;53575;51.366;12.350;2023-03-16T03:26:04;100927.06;;;-1.42;100.00
66681;BME280;53575;51.366;12.350;2023-03-16T03:28:30;100919.59;;;-1.38;100.00
66681;BME280;53575;51.366;12.350;2023-03-16T03:30:56;100925.31;;;-1.43;100.00
66681;BME280;53575;51.366;12.350;2023-03-16T03:33:22;100924.81;;;-1.36;100.00
66681;BME280;53575;51.366;12.350;2023-03-16T03:35:53;100919.13;;;-1.47;100.00
66681;BME280;53575;51.366;12.350;2023-03-16T03:38:19;100918.66;;;-1.40;100.00
66681;BME280;53575;51.366;12.350;2023-03-16T03:40:44;100920.88;;;-1.46;100.00
66681;BME280;53575;51.366;12.350;2023-03-16T03:43:10;100924.69;;;-1.56;100.00
66681;BME280;53575;51.366;12.350;2023-03-16T03:45:35;100924.41;;;-1.60;100.00
66681;BME280;53575;51.366;12.350;2023-03-16T03:48:00;100928.41;;;-1.49;100.00
66681;BME280;53575;51.366;12.350;2023-03-16T03:50:26;100925.78;;;-1.67;100.00
66681;BME280;53575;51.366;12.350;2023-03-16T03:52:51;100925.47;;;-1.73;100.00
66681;BME280;53575;51.366;12.350;2023-03-16T03:55:16;100925.16;;;-1.79;100.00
66681;BME280;53575;51.366;12.350;2023-03-16T03:57:42;100915.44;;;-1.68;100.00
66681;BME280;53575;51.366;12.350;2023-03-16T04:00:11;100920.19;;;-1.60;100.00
66681;BME280;53575;51.366;12.350;2023-03-16T04:02:37;100911.06;;;-1.55;100.00
66681;BME280;53575;51.366;12.350;2023-03-16T04:05:04;100915.13;;;-1.58;100.00
66681;BME280;53575;51.366;12.350;2023-03-16T04:07:30;100911.88;;;-1.56;100.00
66681;BME280;53575;51.366;12.350;2023-03-16T04:09:55;100914.72;;;-1.50;100.00
66681;BME280;53575;51.366;12.350;2023-03-16T04:12:21;100914.50;;;-1.70;100.00
66681;BME280;53575;51.366;12.350;2023-03-16T04:14:46;100911.06;;;-1.71;100.00
66681;BME280;53575;51.366;12.350;2023-03-16T04:17:11;100909.28;;;-1.88;100.00
66681;BME280;53575;51.366;12.350;2023-03-16T04:19:37;100911.94;;;-1.87;100.00
66681;BME280;53575;51.366;12.350;2023-03-16T04:22:02;100912.94;;;-1.83;100.00
66681;BME280;53575;51.366;12.350;2023-03-16T04:24:28;100911.44;;;-1.96;100.00
66681;BME280;53575;51.366;12.350;2023-03-16T04:26:53;100914.56;;;-1.85;100.00
66681;BME280;53575;51.366;12.350;2023-03-16T04:29:19;100912.72;;;-1.88;100.00
66681;BME280;53575;51.366;12.350;2023-03-16T04:31:45;100907.34;;;-1.76;100.00
66681;BME280;53575;51.366;12.350;2023-03-16T04:34:11;100914.28;;;-1.75;100.00
66681;BME280;53575;51.366;12.350;2023-03-16T04:36:37;100918.88;;;-1.68;100.00
66681;BME280;53575;51.366;12.350;2023-03-16T04:39:03;100914.97;;;-1.61;100.00
66681;BME280;53575;51.366;12.350;2023-03-16T04:41:29;100905.53;;;-1.62;100.00
66681;BME280;53575;51.366;12.350;2023-03-16T04:43:55;100903.38;;;-1.71;100.00
66681;BME280;53575;51.366;12.350;2023-03-16T04:46:22;100906.25;;;-1.65;100.00
66681;BME280;53575;51.366;12.350;2023-03-16T04:48:47;100905.59;;;-1.77;100.00
66681;BME280;53575;51.366;12.350;2023-03-16T04:51:13;100907.75;;;-1.85;100.00
66681;BME280;53575;51.366;12.350;2023-03-16T04:53:38;100918.28;;;-1.64;100.00
66681;BME280;53575;51.366;12.350;2023-03-16T04:56:04;100913.69;;;-1.69;100.00
66681;BME280;53575;51.366;12.350;2023-03-16T04:58:31;100907.69;;;-1.70;100.00
66681;BME280;53575;51.366;12.350;2023-03-16T05:00:57;100914.41;;;-1.72;100.00
66681;BME280;53575;51.366;12.350;2023-03-16T05:03:22;100917.13;;;-1.69;100.00
66681;BME280;53575;51.366;12.350;2023-03-16T05:05:48;100917.28;;;-1.50;100.00
66681;BME280;53575;51.366;12.350;2023-03-16T05:08:14;100914.03;;;-1.63;100.00
66681;BME280;53575;51.366;12.350;2023-03-16T05:10:39;100907.63;;;-1.72;100.00
66681;BME280;53575;51.366;12.350;2023-03-16T05:13:05;100916.41;;;-1.66;100.00
66681;BME280;53575;51.366;12.350;2023-03-16T05:15:31;100913.78;;;-1.52;100.00
66681;BME280;53575;51.366;12.350;2023-03-16T05:17:57;100921.84;;;-1.60;100.00
66681;BME280;53575;51.366;12.350;2023-03-16T05:20:23;100926.50;;;-1.69;100.00
66681;BME280;53575;51.366;12.350;2023-03-16T05:22:49;100923.47;;;-1.62;100.00
66681;BME280;53575;51.366;12.350;2023-03-16T05:25:16;100927.53;;;-1.66;100.00
66681;BME280;53575;51.366;12.350;2023-03-16T05:27:43;100931.47;;;-1.40;100.00
66681;BME280;53575;51.366;12.350;2023-03-16T05:30:11;100934.53;;;-1.47;100.00
66681;BME280;53575;51.366;12.350;2023-03-16T05:32:37;100933.31;;;-1.54;100.00
66681;BME280;53575;51.366;12.350;2023-03-16T05:35:04;100928.19;;;-1.54;100.00
66681;BME280;53575;51.366;12.350;2023-03-16T05:37:29;100929.78;;;-1.72;100.00
66681;BME280;53575;51.366;12.350;2023-03-16T05:39:55;100932.28;;;-1.74;100.00
66681;BME280;53575;51.366;12.350;2023-03-16T05:42:23;100927.72;;;-1.63;100.00
66681;BME280;53575;51.366;12.350;2023-03-16T05:44:51;100926.44;;;-1.71;100.00
66681;BME280;53575;51.366;12.350;2023-03-16T05:47:16;100936.03;;;-1.51;100.00
66681;BME280;53575;51.366;12.350;2023-03-16T05:49:42;100946.47;;;-1.48;100.00
66681;BME280;53575;51.366;12.350;2023-03-16T05:52:07;100944.38;;;-1.55;100.00
66681;BME280;53575;51.366;12.350;2023-03-16T05:54:32;100929.22;;;-1.50;100.00
66681;BME280;53575;51.366;12.350;2023-03-16T05:56:58;100944.06;;;-1.44;100.00
66681;BME280;53575;51.366;12.350;2023-03-16T05:59:23;100945.50;;;-1.33;100.00
66681;BME280;53575;51.366;12.350;2023-03-16T06:01:49;100949.81;;;-1.32;100.00
66681;BME280;53575;51.366;12.350;2023-03-16T06:04:15;100946.19;;;-1.19;100.00
66681;BME280;53575;51.366;12.350;2023-03-16T06:06:40;100946.94;;;-1.22;100.00
66681;BME280;53575;51.366;12.350;2023-03-16T06:09:06;100954.75;;;-1.19;100.00
66681;BME280;53575;51.366;12.350;2023-03-16T06:11:32;100960.84;;;-1.17;100.00
66681;BME280;53575;51.366;12.350;2023-03-16T06:13:58;100962.28;;;-1.06;100.00
66681;BME280;53575;51.366;12.350;2023-03-16T06:16:26;100963.41;;;-1.01;100.00
66681;BME280;53575;51.366;12.350;2023-03-16T06:18:52;100959.06;;;-1.02;100.00
66681;BME280;53575;51.366;12.350;2023-03-16T06:21:18;100955.28;;;-0.92;100.00
66681;BME280;53575;51.366;12.350;2023-03-16T06:23:43;100962.75;;;-0.96;100.00
66681;BME280;53575;51.366;12.350;2023-03-16T06:26:08;100957.72;;;-0.95;100.00
66681;BME280;53575;51.366;12.350;2023-03-16T06:28:34;100958.25;;;-1.01;100.00
66681;BME280;53575;51.366;12.350;2023-03-16T06:30:59;100964.22;;;-1.02;100.00
66681;BME280;53575;51.366;12.350;2023-03-16T06:33:26;100960.72;;;-0.86;100.00
66681;BME280;53575;51.366;12.350;2023-03-16T06:35:51;100958.38;;;-0.81;100.00
66681;BME280;53575;51.366;12.350;2023-03-16T06:38:18;100961.25;;;-0.75;100.00
66681;BME280;53575;51.366;12.350;2023-03-16T06:40:43;100961.97;;;-0.78;100.00
66681;BME280;53575;51.366;12.350;2023-03-16T06:43:09;100959.25;;;-0.81;100.00
66681;BME280;53575;51.366;12.350;2023-03-16T06:45:35;100961.81;;;-0.81;100.00
66681;BME280;53575;51.366;12.350;2023-03-16T06:48:00;100964.44;;;-0.63;100.00
66681;BME280;53575;51.366;12.350;2023-03-16T06:50:27;100961.84;;;-0.63;100.00
66681;BME280;53575;51.366;12.350;2023-03-16T06:52:52;100966.94;;;-0.64;100.00
66681;BME280;53575;51.366;12.350;2023-03-16T06:55:18;100965.09;;;-0.67;100.00
66681;BME280;53575;51.366;12.350;2023-03-16T06:57:43;100966.19;;;-0.62;100.00
66681;BME280;53575;51.366;12.350;2023-03-16T07:00:12;100963.28;;;-0.52;100.00
66681;BME280;53575;51.366;12.350;2023-03-16T07:02:38;100959.97;;;-0.49;100.00
66681;BME280;53575;51.366;12.350;2023-03-16T07:05:06;100958.94;;;-0.53;100.00
66681;BME280;53575;51.366;12.350;2023-03-16T07:07:32;100953.59;;;-0.39;100.00
66681;BME280;53575;51.366;12.350;2023-03-16T07:09:58;100941.94;;;-0.33;100.00
66681;BME280;53575;51.366;12.350;2023-03-16T07:12:23;100951.59;;;-0.27;100.00
66681;BME280;53575;51.366;12.350;2023-03-16T07:14:49;100958.44;;;-0.28;100.00
66681;BME280;53575;51.366;12.350;2023-03-16T07:17:15;100953.81;;;-0.17;100.00
66681;BME280;53575;51.366;12.350;2023-03-16T07:19:41;100958.44;;;-0.10;99.50
66681;BME280;53575;51.366;12.350;2023-03-16T07:22:08;100957.81;;;-0.04;98.14
66681;BME280;53575;51.366;12.350;2023-03-16T07:24:33;100968.03;;;-0.06;98.49
66681;BME280;53575;51.366;12.350;2023-03-16T07:26:59;100968.56;;;-0.13;98.69
66681;BME280;53575;51.366;12.350;2023-03-16T07:29:26;100957.75;;;-0.06;98.70
66681;BME280;53575;51.366;12.350;2023-03-16T07:31:51;100952.91;;;0.01;98.32
66681;BME280;53575;51.366;12.350;2023-03-16T07:34:17;100952.81;;;0.17;97.36
66681;BME280;53575;51.366;12.350;2023-03-16T07:36:43;100958.44;;;0.28;96.48
66681;BME280;53575;51.366;12.350;2023-03-16T07:39:09;100962.97;;;0.33;96.48
66681;BME280;53575;51.366;12.350;2023-03-16T07:41:38;100959.28;;;0.46;96.06
66681;BME280;53575;51.366;12.350;2023-03-16T07:44:04;100957.38;;;0.61;94.81
66681;BME280;53575;51.366;12.350;2023-03-16T07:46:29;100957.72;;;0.69;93.79
66681;BME280;53575;51.366;12.350;2023-03-16T07:48:57;100956.28;;;0.76;93.27
66681;BME280;53575;51.366;12.350;2023-03-16T07:51:22;100958.13;;;0.78;92.97
66681;BME280;53575;51.366;12.350;2023-03-16T07:53:48;100958.41;;;0.84;92.24
66681;BME280;53575;51.366;12.350;2023-03-16T07:56:14;100962.03;;;0.89;93.17
66681;BME280;53575;51.366;12.350;2023-03-16T07:58:39;100957.06;;;0.94;91.79
66681;BME280;53575;51.366;12.350;2023-03-16T08:01:06;100966.00;;;1.02;90.53
66681;BME280;53575;51.366;12.350;2023-03-16T08:03:33;100970.31;;;1.23;89.43
66681;BME280;53575;51.366;12.350;2023-03-16T08:05:59;100967.09;;;1.28;89.20
66681;BME280;53575;51.366;12.350;2023-03-16T08:08:24;100964.81;;;1.34;89.56
66681;BME280;53575;51.366;12.350;2023-03-16T08:10:51;100967.88;;;1.46;88.31
66681;BME280;53575;51.366;12.350;2023-03-16T08:13:17;100972.94;;;1.66;87.02
66681;BME280;53575;51.366;12.350;2023-03-16T08:15:47;100968.81;;;1.69;86.11
66681;BME280;53575;51.366;12.350;2023-03-16T08:18:13;100965.84;;;1.81;85.32
66681;BME280;53575;51.366;12.350;2023-03-16T08:20:39;100964.09;;;1.80;85.13
66681;BME280;53575;51.366;12.350;2023-03-16T08:23:05;100966.59;;;2.01;84.17
66681;BME280;53575;51.366;12.350;2023-03-16T08:25:31;100966.72;;;2.04;83.29
66681;BME280;53575;51.366;12.350;2023-03-16T08:27:56;100972.44;;;2.18;82.50
66681;BME280;53575;51.366;12.350;2023-03-16T08:30:22;100983.13;;;2.29;81.84
66681;BME280;53575;51.366;12.350;2023-03-16T08:32:49;100975.75;;;2.38;81.42
66681;BME280;53575;51.366;12.350;2023-03-16T08:35:15;100977.66;;;2.43;80.47
66681;BME280;53575;51.366;12.350;2023-03-16T08:37:43;100989.34;;;2.56;80.08
66681;BME280;53575;51.366;12.350;2023-03-16T08:40:11;100989.66;;;2.65;79.22
66681;BME280;53575;51.366;12.350;2023-03-16T08:42:41;100993.25;;;2.93;78.51
66681;BME280;53575;51.366;12.350;2023-03-16T08:45:09;100991.25;;;2.86;79.82
66681;BME280;53575;51.366;12.350;2023-03-16T08:47:35;100988.88;;;2.90;78.45
66681;BME280;53575;51.366;12.350;2023-03-16T08:50:02;100986.56;;;2.98;78.41
66681;BME280;53575;51.366;12.350;2023-03-16T08:52:29;100985.94;;;3.05;78.13
66681;BME280;53575;51.366;12.350;2023-03-16T08:54:55;100990.66;;;3.17;76.73
66681;BME280;53575;51.366;12.350;2023-03-16T08:57:21;100988.41;;;3.28;75.66
66681;BME280;53575;51.366;12.350;2023-03-16T08:59:46;100989.88;;;3.45;74.41
66681;BME280;53575;51.366;12.350;2023-03-16T09:02:12;100993.56;;;3.52;74.89
66681;BME280;53575;51.366;12.350;2023-03-16T09:04:39;100990.53;;;3.65;72.86
66681;BME280;53575;51.366;12.350;2023-03-16T09:07:04;100989.94;;;3.74;72.10
66681;BME280;53575;51.366;12.350;2023-03-16T09:09:30;100991.81;;;3.78;72.37
66681;BME280;53575;51.366;12.350;2023-03-16T09:11:57;100983.59;;;3.89;71.81
66681;BME280;53575;51.366;12.350;2023-03-16T09:14:23;100981.97;;;3.93;72.01
66681;BME280;53575;51.366;12.350;2023-03-16T09:16:49;100972.88;;;4.06;70.19
66681;BME280;53575;51.366;12.350;2023-03-16T09:19:15;100973.97;;;4.14;71.09
66681;BME280;53575;51.366;12.350;2023-03-16T09:21:41;100976.19;;;4.30;69.51
66681;BME280;53575;51.366;12.350;2023-03-16T09:24:06;100976.63;;;4.46;66.36
66681;BME280;53575;51.366;12.350;2023-03-16T09:26:34;100968.22;;;4.53;68.13
66681;BME280;53575;51.366;12.350;2023-03-16T09:29:00;100969.19;;;4.56;69.15
66681;BME280;53575;51.366;12.350;2023-03-16T09:31:26;100965.09;;;4.64;68.16
66681;BME280;53575;51.366;12.350;2023-03-16T09:33:51;100966.25;;;4.74;69.72
66681;BME280;53575;51.366;12.350;2023-03-16T09:36:17;100969.94;;;4.82;68.63
66681;BME280;53575;51.366;12.350;2023-03-16T09:38:42;100977.06;;;4.91;64.58
66681;BME280;53575;51.366;12.350;2023-03-16T09:41:21;100979.78;;;4.96;61.91
66681;BME280;53575;51.366;12.350;2023-03-16T09:47:10;100980.72;;;5.31;57.92
66681;BME280;53575;51.366;12.350;2023-03-16T09:49:48;100981.59;;;5.31;57.09
66681;BME280;53575;51.366;12.350;2023-03-16T09:52:24;100979.03;;;5.31;57.88
66681;BME280;53575;51.366;12.350;2023-03-16T09:58:18;100968.41;;;5.22;59.41
66681;BME280;53575;51.366;12.350;2023-03-16T10:03:57;100963.78;;;5.44;58.04
66681;BME280;53575;51.366;12.350;2023-03-16T10:06:56;100966.59;;;5.53;60.43
66681;BME280;53575;51.366;12.350;2023-03-16T10:11:59;100971.50;;;5.77;59.00
66681;BME280;53575;51.366;12.350;2023-03-16T10:14:32;100972.56;;;5.85;59.18
66681;BME280;53575;51.366;12.350;2023-03-16T10:17:19;100969.97;;;5.85;58.68
66681;BME280;53575;51.366;12.350;2023-03-16T10:20:04;100958.19;;;5.98;59.38
66681;BME280;53575;51.366;12.350;2023-03-16T10:22:38;100961.97;;;6.12;59.66
66681;BME280;53575;51.366;12.350;2023-03-16T10:27:41;100956.94;;;6.18;58.80
66681;BME280;53575;51.366;12.350;2023-03-16T10:32:49;100952.66;;;6.22;58.67
66681;BME280;53575;51.366;12.350;2023-03-16T10:37:51;100950.84;;;6.60;57.47
66681;BME280;53575;51.366;12.350;2023-03-16T10:40:17;100948.78;;;6.86;56.33
66681;BME280;53575;51.366;12.350;2023-03-16T10:42:45;100942.91;;;6.95;55.54
66681;BME280;53575;51.366;12.350;2023-03-16T10:45:22;100948.13;;;6.98;55.94
66681;BME280;53575;51.366;12.350;2023-03-16T10:47:48;100949.91;;;7.00;55.12
66681;BME280;53575;51.366;12.350;2023-03-16T10:50:14;100946.44;;;7.00;55.66
66681;BME280;53575;51.366;12.350;2023-03-16T10:52:48;100943.69;;;6.91;53.29
66681;BME280;53575;51.366;12.350;2023-03-16T10:55:29;100934.81;;;6.79;53.41
66681;BME280;53575;51.366;12.350;2023-03-16T10:57:57;100931.66;;;6.96;51.36
66681;BME280;53575;51.366;12.350;2023-03-16T11:00:34;100930.97;;;7.06;51.58
66681;BME280;53575;51.366;12.350;2023-03-16T11:03:11;100918.00;;;7.09;51.21
66681;BME280;53575;51.366;12.350;2023-03-16T11:05:37;100922.47;;;7.15;50.49
66681;BME280;53575;51.366;12.350;2023-03-16T11:08:19;100912.28;;;7.27;48.41
66681;BME280;53575;51.366;12.350;2023-03-16T11:10:55;100912.25;;;7.25;48.07
66681;BME280;53575;51.366;12.350;2023-03-16T11:13:24;100904.66;;;7.38;47.35
66681;BME280;53575;51.366;12.350;2023-03-16T11:16:20;100900.38;;;7.41;46.56
66681;BME280;53575;51.366;12.350;2023-03-16T11:19:02;100898.06;;;7.60;46.76
66681;BME280;53575;51.366;12.350;2023-03-16T11:24:43;100893.75;;;7.60;46.90
66681;BME280;53575;51.366;12.350;2023-03-16T11:27:25;100889.53;;;7.68;48.36
66681;BME280;53575;51.366;12.350;2023-03-16T11:32:33;100881.44;;;8.09;48.85
66681;BME280;53575;51.366;12.350;2023-03-16T11:35:00;100876.31;;;8.17;47.30
66681;BME280;53575;51.366;12.350;2023-03-16T11:40:26;100886.94;;;8.35;47.57
66681;BME280;53575;51.366;12.350;2023-03-16T11:45:47;100878.50;;;8.53;43.55
66681;BME280;53575;51.366;12.350;2023-03-16T11:48:27;100875.13;;;8.59;43.49
66681;BME280;53575;51.366;12.350;2023-03-16T11:54:20;100868.44;;;8.88;45.28
66681;BME280;53575;51.366;12.350;2023-03-16T11:56:58;100865.91;;;8.96;45.19
66681;BME280;53575;51.366;12.350;2023-03-16T12:02:23;100856.41;;;9.01;42.71
66681;BME280;53575;51.366;12.350;2023-03-16T12:10:47;100841.69;;;9.06;42.84
66681;BME280;53575;51.366;12.350;2023-03-16T12:13:29;100839.06;;;9.05;41.08
66681;BME280;53575;51.366;12.350;2023-03-16T12:16:01;100836.41;;;9.00;38.53
66681;BME280;53575;51.366;12.350;2023-03-16T12:23:59;100826.19;;;9.24;41.75
66681;BME280;53575;51.366;12.350;2023-03-16T12:26:28;100820.25;;;9.50;40.82
66681;BME280;53575;51.366;12.350;2023-03-16T12:28:57;100809.00;;;9.54;41.40
66681;BME280;53575;51.366;12.350;2023-03-16T12:36:40;100809.19;;;9.95;42.03
66681;BME280;53575;51.366;12.350;2023-03-16T12:39:20;100795.28;;;9.95;38.31
66681;BME280;53575;51.366;12.350;2023-03-16T12:44:48;100785.75;;;10.05;40.00
66681;BME280;53575;51.366;12.350;2023-03-16T12:50:12;100776.25;;;10.30;39.96
66681;BME280;53575;51.366;12.350;2023-03-16T12:52:45;100767.59;;;10.49;40.65
66681;BME280;53575;51.366;12.350;2023-03-16T12:58:07;100764.13;;;10.79;40.77
66681;BME280;53575;51.366;12.350;2023-03-16T13:00:36;100768.50;;;11.00;40.41
66681;BME280;53575;51.366;12.350;2023-03-16T13:03:03;100767.63;;;10.89;42.20
66681;BME280;53575;51.366;12.350;2023-03-16T13:05:35;100755.44;;;10.79;41.60
66681;BME280;53575;51.366;12.350;2023-03-16T13:08:09;100759.78;;;10.81;41.48
66681;BME280;53575;51.366;12.350;2023-03-16T13:10:37;100751.06;;;11.04;41.13
66681;BME280;53575;51.366;12.350;2023-03-16T13:13:21;100756.25;;;11.20;37.97
66681;BME280;53575;51.366;12.350;2023-03-16T13:16:09;100756.25;;;11.23;38.58
66681;BME280;53575;51.366;12.350;2023-03-16T13:18:46;100757.16;;;11.13;38.70
66681;BME280;53575;51.366;12.350;2023-03-16T13:21:18;100742.25;;;11.46;36.15
66681;BME280;53575;51.366;12.350;2023-03-16T13:26:21;100747.41;;;11.74;37.94
66681;BME280;53575;51.366;12.350;2023-03-16T13:28:52;100748.25;;;11.88;36.27
66681;BME280;53575;51.366;12.350;2023-03-16T13:31:30;100746.53;;;11.70;35.09
66681;BME280;53575;51.366;12.350;2023-03-16T13:34:00;100753.41;;;12.00;36.08
66681;BME280;53575;51.366;12.350;2023-03-16T13:36:28;100750.56;;;12.40;34.74
66681;BME280;53575;51.366;12.350;2023-03-16T13:38:58;100748.06;;;12.20;34.42
66681;BME280;53575;51.366;12.350;2023-03-16T13:41:27;100745.25;;;12.48;34.91
66681;BME280;53575;51.366;12.350;2023-03-16T13:43:53;100746.06;;;12.60;35.57
66681;BME280;53575;51.366;12.350;2023-03-16T13:46:20;100758.91;;;12.92;34.72
66681;BME280;53575;51.366;12.350;2023-03-16T13:48:51;100755.38;;;12.98;33.98
66681;BME280;53575;51.366;12.350;2023-03-16T13:51:18;100754.91;;;13.46;32.31
66681;BME280;53575;51.366;12.350;2023-03-16T13:53:46;100750.78;;;13.23;34.96
66681;BME280;53575;51.366;12.350;2023-03-16T13:56:22;100757.03;;;13.88;31.65
66681;BME280;53575;51.366;12.350;2023-03-16T13:58:51;100751.72;;;13.95;31.63